Time;durP1;ratioP1;P1;durP2;ratioP2;P2;SDS_P1;SDS_P2;PMS_P1;PMS_P2;Temp;Humidity;BMP_temperature;BMP_pressure;BME280_temperature;BME280_humidity;BME280_pressure;Samples;Min_cycle;Max_cycle;Signal;HPM_P1;HPM_P2
2021/01/25 00:03:35;;;;;;;39.63;14.63;;;;;;;3.04;78.74;98876.63;8659691;33;20179;-68
2021/01/25 00:08:37;;;;;;;29.17;13.00;;;;;;;3.06;78.68;98874.75;8661058;33;20189;-68
2021/01/25 00:13:41;;;;;;;29.60;13.40;;;;;;;3.10;78.56;98871.84;8659357;33;20494;-68
2021/01/25 00:18:43;;;;;;;31.13;13.77;;;;;;;3.16;78.27;98865.34;8658920;33;20652;-68
2021/01/25 00:23:45;;;;;;;26.73;12.83;;;;;;;3.20;78.21;98866.00;8657873;33;20212;-68
2021/01/25 00:28:49;;;;;;;30.57;13.20;;;;;;;3.22;77.96;98870.25;8659290;33;20156;-68
2021/01/25 00:33:51;;;;;;;28.47;13.60;;;;;;;3.21;77.33;98855.38;8657140;33;20267;-68
2021/01/25 00:38:54;;;;;;;29.27;13.57;;;;;;;3.26;76.57;98862.97;8658959;33;20238;-68
2021/01/25 00:43:57;;;;;;;28.27;13.20;;;;;;;3.28;76.51;98861.09;8659015;33;20173;-68
2021/01/25 00:48:59;;;;;;;28.30;13.53;;;;;;;3.30;77.38;98856.59;8658983;33;20180;-68
2021/01/25 00:54:01;;;;;;;29.33;13.47;;;;;;;3.30;77.86;98854.78;8658476;33;20188;-68
2021/01/25 00:59:06;;;;;;;30.63;12.97;;;;;;;3.29;78.11;98845.19;8656557;33;20192;-68
2021/01/25 01:04:08;;;;;;;27.33;13.00;;;;;;;3.25;78.73;98841.03;8658413;33;20218;-68
2021/01/25 01:09:11;;;;;;;30.47;13.07;;;;;;;3.14;78.60;98842.63;8657806;33;20689;-68
2021/01/25 01:14:14;;;;;;;28.80;13.77;;;;;;;3.04;79.37;98845.81;8657972;33;20255;-69
2021/01/25 01:19:16;;;;;;;38.80;14.37;;;;;;;3.06;79.45;98840.44;8658209;33;20272;-68
2021/01/25 01:24:19;;;;;;;32.07;14.87;;;;;;;2.88;79.85;98845.06;8657978;33;20149;-68
2021/01/25 01:29:22;;;;;;;28.50;12.97;;;;;;;2.85;80.26;98859.28;8657730;33;20609;-68
2021/01/25 01:34:25;;;;;;;33.43;13.60;;;;;;;3.02;79.81;98849.50;8657543;33;20947;-68
2021/01/25 01:39:27;;;;;;;36.30;14.77;;;;;;;3.02;79.42;98863.53;8657848;33;20798;-68
2021/01/25 01:44:30;;;;;;;30.97;14.43;;;;;;;2.90;79.50;98849.28;8659282;33;21831;-68
2021/01/25 01:49:34;;;;;;;32.23;14.83;;;;;;;2.78;79.77;98850.03;8662489;33;20214;-68
2021/01/25 01:54:36;;;;;;;29.73;13.03;;;;;;;2.70;79.91;98849.63;8661731;33;20244;-68
2021/01/25 01:59:39;;;;;;;26.33;12.10;;;;;;;2.71;79.57;98847.84;8661910;33;20685;-68
2021/01/25 02:04:45;;;;;;;29.60;13.70;;;;;;;2.75;79.67;98846.72;8662399;33;22397;-68
2021/01/25 02:09:49;;;;;;;29.43;13.37;;;;;;;2.78;79.42;98836.84;8662277;33;20342;-68
2021/01/25 02:14:52;;;;;;;27.83;13.10;;;;;;;2.77;79.55;98834.28;8662372;33;20204;-68
2021/01/25 02:20:04;;;;;;;24.17;12.10;;;;;;;2.75;79.76;98837.03;8662321;33;20248;-68
2021/01/25 02:25:18;;;;;;;29.77;12.47;;;;;;;2.76;79.75;98829.94;8661866;33;20460;-68
2021/01/25 02:30:22;;;;;;;28.20;12.63;;;;;;;2.66;80.22;98834.91;8661796;33;20536;-69
2021/01/25 02:35:25;;;;;;;25.90;11.77;;;;;;;2.64;80.07;98835.03;8661542;33;20152;-68
2021/01/25 02:40:30;;;;;;;25.60;12.30;;;;;;;2.65;80.20;98839.34;8661245;33;20700;-68
2021/01/25 02:45:33;;;;;;;25.47;11.30;;;;;;;2.79;80.18;98833.25;8660677;33;20800;-68
2021/01/25 02:50:36;;;;;;;25.90;11.73;;;;;;;2.88;80.04;98840.63;8660986;33;20238;-68
2021/01/25 02:55:38;;;;;;;26.20;12.23;;;;;;;2.90;79.61;98843.16;8660471;33;20149;-68
2021/01/25 03:00:41;;;;;;;29.43;11.47;;;;;;;2.89;79.82;98838.84;8660859;33;20258;-68
2021/01/25 03:05:44;;;;;;;23.50;10.30;;;;;;;2.90;79.75;98843.16;8669745;33;20242;-68
2021/01/25 03:10:47;;;;;;;27.97;11.73;;;;;;;2.88;79.39;98840.63;8719299;33;20243;-68
2021/01/25 03:15:50;;;;;;;24.47;12.07;;;;;;;2.84;79.11;98839.09;8716360;33;20241;-68
2021/01/25 03:20:55;;;;;;;24.90;12.00;;;;;;;2.78;79.35;98842.09;8718496;33;20149;-68
2021/01/25 03:25:57;;;;;;;22.93;11.17;;;;;;;2.75;79.27;98844.94;8718151;33;20215;-68
2021/01/25 03:31:00;;;;;;;27.23;11.17;;;;;;;2.75;79.57;98854.63;8718180;33;20143;-68
2021/01/25 03:36:04;;;;;;;26.17;12.60;;;;;;;2.72;79.57;98850.41;8717578;33;20241;-68
2021/01/25 03:41:06;;;;;;;29.50;12.07;;;;;;;2.65;79.62;98865.72;8717988;33;20302;-68
2021/01/25 03:46:10;;;;;;;31.63;13.60;;;;;;;2.62;79.83;98867.69;8717729;33;20191;-68
2021/01/25 03:51:12;;;;;;;28.27;12.77;;;;;;;2.59;79.79;98866.06;8717531;33;20763;-68
2021/01/25 03:56:15;;;;;;;22.23;11.57;;;;;;;2.52;80.04;98870.00;8716986;33;20336;-68
2021/01/25 04:01:18;;;;;;;24.20;11.87;;;;;;;2.44;79.74;98873.09;8717076;33;20219;-68
2021/01/25 04:06:21;;;;;;;25.63;11.93;;;;;;;2.44;80.21;98877.50;8739205;33;20486;-68
2021/01/25 04:11:23;;;;;;;27.87;12.93;;;;;;;2.43;80.16;98879.28;8718061;33;21360;-68
2021/01/25 04:16:26;;;;;;;24.57;11.70;;;;;;;2.47;79.84;98882.63;8718589;33;20766;-68
2021/01/25 04:21:29;;;;;;;26.63;12.23;;;;;;;2.45;80.05;98887.13;8692847;33;20141;-68
2021/01/25 04:26:32;;;;;;;28.87;12.90;;;;;;;2.41;80.27;98881.19;8680163;33;20649;-69
2021/01/25 04:31:35;;;;;;;31.77;12.33;;;;;;;2.47;80.12;98892.28;8658625;33;20218;-68
2021/01/25 04:36:38;;;;;;;24.83;12.83;;;;;;;2.33;80.42;98896.59;8658317;33;20286;-69
2021/01/25 04:41:41;;;;;;;33.13;13.37;;;;;;;2.27;80.66;98904.81;8659364;33;20916;-69
2021/01/25 04:46:44;;;;;;;28.10;12.93;;;;;;;2.27;80.68;98906.59;8657935;33;20227;-69
2021/01/25 04:51:47;;;;;;;26.63;12.03;;;;;;;2.29;80.55;98905.59;8658632;33;20188;-69
2021/01/25 04:56:51;;;;;;;33.73;14.23;;;;;;;2.38;80.08;98912.13;8657633;33;20184;-68
2021/01/25 05:01:54;;;;;;;27.83;12.63;;;;;;;2.37;80.11;98913.91;8658453;33;20331;-69
2021/01/25 05:06:57;;;;;;;28.80;12.83;;;;;;;2.33;80.03;98924.69;8657582;33;20728;-69
2021/01/25 05:12:01;;;;;;;29.63;12.73;;;;;;;2.32;79.99;98921.22;8658430;33;20141;-69
2021/01/25 05:17:08;;;;;;;28.93;12.43;;;;;;;2.30;80.22;98922.25;8658427;33;20640;-69
2021/01/25 05:22:15;;;;;;;32.57;13.30;;;;;;;2.44;80.02;98927.56;8661934;33;20202;-68
2021/01/25 05:27:24;;;;;;;32.20;13.57;;;;;;;2.51;79.77;98930.72;8662329;33;20227;-68
2021/01/25 05:32:28;;;;;;;32.17;13.23;;;;;;;2.56;79.84;98924.25;8662528;33;20129;-68
2021/01/25 05:37:30;;;;;;;27.93;12.73;;;;;;;2.60;79.90;98927.56;8661967;33;20225;-68
2021/01/25 05:42:33;;;;;;;31.33;13.33;;;;;;;2.56;80.17;98932.16;8662645;33;20425;-68
2021/01/25 05:47:48;;;;;;;26.47;11.80;;;;;;;2.52;80.15;98932.41;8662393;33;20564;-68
2021/01/25 05:52:52;;;;;;;26.00;11.73;;;;;;;2.47;79.96;98935.34;8662528;33;21088;-69
2021/01/25 05:57:55;;;;;;;24.17;11.67;;;;;;;2.43;79.63;98939.91;8661371;33;20520;-68
2021/01/25 06:02:58;;;;;;;29.40;12.20;;;;;;;2.47;79.75;98940.63;8684099;33;20231;-69
2021/01/25 06:08:16;;;;;;;37.57;13.97;;;;;;;2.45;79.56;98937.19;8636614;33;20191;-68
2021/01/25 06:13:22;;;;;;;35.23;12.33;;;;;;;2.47;79.30;98953.78;8661984;33;20227;-69
2021/01/25 06:18:26;;;;;;;25.27;11.77;;;;;;;2.35;78.90;98955.31;8661188;33;20755;-69
2021/01/25 06:23:30;;;;;;;31.23;13.03;;;;;;;2.33;79.46;98962.47;8663244;33;20603;-69
2021/01/25 06:28:33;;;;;;;30.33;12.27;;;;;;;2.32;79.07;98962.53;8661228;33;20141;-69
2021/01/25 06:33:38;;;;;;;24.20;12.30;;;;;;;2.31;79.23;98974.03;8661856;33;20603;-68
2021/01/25 06:38:42;;;;;;;24.77;11.20;;;;;;;2.32;79.48;98983.63;8660486;33;20210;-69
2021/01/25 06:43:48;;;;;;;30.27;12.63;;;;;;;2.36;79.44;98987.78;8683936;33;20475;-69
2021/01/25 06:48:53;;;;;;;30.47;12.60;;;;;;;2.40;79.29;98992.81;8660681;33;20908;-69
2021/01/25 06:53:59;;;;;;;31.93;12.87;;;;;;;2.38;79.60;99004.38;8661080;33;20746;-68
2021/01/25 06:59:05;;;;;;;29.27;12.80;;;;;;;2.36;79.92;99003.59;8660383;33;20214;-69
2021/01/25 07:04:14;;;;;;;27.47;12.37;;;;;;;2.33;79.40;99007.28;8660644;33;20217;-69
2021/01/25 07:09:25;;;;;;;25.50;11.67;;;;;;;2.31;79.92;99013.56;8660802;33;21063;-69
2021/01/25 07:14:30;;;;;;;28.93;13.30;;;;;;;2.34;79.63;99026.56;8660386;33;20218;-69
2021/01/25 07:19:33;;;;;;;34.40;15.10;;;;;;;2.32;79.58;99021.38;8660321;33;20898;-69
2021/01/25 07:24:37;;;;;;;37.80;14.30;;;;;;;2.35;79.97;99037.00;8660209;33;20153;-69
2021/01/25 07:29:45;;;;;;;30.77;13.47;;;;;;;2.37;79.73;99045.69;8659155;33;20196;-69
2021/01/25 07:34:48;;;;;;;25.63;11.33;;;;;;;2.44;79.57;99049.72;8659646;33;20275;-68
2021/01/25 07:39:51;;;;;;;31.80;12.77;;;;;;;2.51;79.83;99054.63;8658651;33;20152;-68
2021/01/25 07:44:54;;;;;;;27.63;12.70;;;;;;;2.51;79.66;99070.44;8677970;33;20651;-69
2021/01/25 07:50:08;;;;;;;31.97;13.47;;;;;;;2.53;79.83;99073.88;8663713;33;21106;-69
2021/01/25 07:55:15;;;;;;;29.60;12.67;;;;;;;2.55;79.51;99083.41;8673434;33;20141;-68
2021/01/25 08:00:22;;;;;;;35.07;12.70;;;;;;;2.59;79.79;99087.56;8685428;33;20192;-68
2021/01/25 08:05:26;;;;;;;27.17;11.93;;;;;;;2.64;79.75;99095.22;8690738;33;20695;-69
2021/01/25 08:10:31;;;;;;;15.47;6.60;;;;;;;2.72;79.77;99103.56;8714308;33;20184;-69
2021/01/25 08:15:35;;;;;;;52.77;21.60;;;;;;;2.95;80.01;99104.91;8715577;33;20251;-68
2021/01/25 08:20:40;;;;;;;56.27;21.37;;;;;;;3.10;79.29;99111.13;8676698;33;20153;-69
2021/01/25 08:25:42;;;;;;;40.77;17.70;;;;;;;3.33;79.35;99115.94;8684801;33;20628;-68
2021/01/25 08:30:48;;;;;;;29.73;12.67;;;;;;;3.35;79.22;99123.78;8679404;33;20753;-69
2021/01/25 08:35:56;;;;;;;35.33;14.53;;;;;;;3.36;79.47;99129.91;8689355;33;20514;-69
2021/01/25 08:41:02;;;;;;;27.13;11.80;;;;;;;3.47;79.31;99127.50;8711290;33;20667;-69
2021/01/25 08:46:11;;;;;;;25.27;11.87;;;;;;;3.61;79.26;99135.47;8715936;33;20196;-69
2021/01/25 08:51:21;;;;;;;27.07;11.87;;;;;;;3.69;79.15;99140.31;8707754;33;21425;-68
2021/01/25 08:56:36;;;;;;;30.60;13.27;;;;;;;3.75;79.23;99139.94;8683078;33;20708;-69
2021/01/25 09:01:41;;;;;;;24.20;11.37;;;;;;;3.77;79.12;99160.03;8683268;33;20254;-68
2021/01/25 09:06:52;;;;;;;26.10;11.80;;;;;;;3.85;78.87;99164.03;8672474;33;20149;-68
2021/01/25 09:11:56;;;;;;;27.37;11.60;;;;;;;3.90;78.43;99173.41;8658007;33;21118;-69
2021/01/25 09:17:03;;;;;;;28.27;12.43;;;;;;;3.82;77.08;99175.63;8657199;33;20275;-69
2021/01/25 09:22:06;;;;;;;26.57;12.77;;;;;;;3.85;76.92;99180.75;8657221;33;20188;-69
2021/01/25 09:27:10;;;;;;;25.20;11.93;;;;;;;3.91;77.45;99190.09;8660949;33;20736;-69
2021/01/25 09:32:13;;;;;;;31.20;12.80;;;;;;;4.06;77.82;99202.44;8660720;33;20192;-69
2021/01/25 09:37:16;;;;;;;32.53;13.73;;;;;;;4.19;77.71;99205.16;8680239;33;20826;-69
2021/01/25 09:42:18;;;;;;;31.07;13.00;;;;;;;4.33;78.29;99212.28;8657358;33;21444;-68
2021/01/25 09:47:36;;;;;;;29.17;13.30;;;;;;;4.53;78.14;99224.34;8679673;33;20483;-69
2021/01/25 09:52:39;;;;;;;30.63;12.43;;;;;;;4.42;76.21;99228.47;8680218;33;20248;-69
2021/01/25 09:57:41;;;;;;;30.00;12.23;;;;;;;4.53;77.00;99230.47;8713605;33;20188;-68
2021/01/25 10:02:45;;;;;;;26.47;13.27;;;;;;;4.73;77.30;99236.34;8714989;33;20183;-69
2021/01/25 10:07:47;;;;;;;28.33;12.63;;;;;;;4.84;77.58;99236.53;8718344;33;20187;-68
2021/01/25 10:12:49;;;;;;;27.47;13.20;;;;;;;4.96;77.50;99245.50;8719637;33;20179;-68
2021/01/25 10:17:53;;;;;;;24.33;11.87;;;;;;;5.03;77.67;99252.13;8714574;33;20466;-68
2021/01/25 10:22:56;;;;;;;31.37;14.03;;;;;;;5.00;76.41;99255.81;8672970;33;20513;-68
2021/01/25 10:27:58;;;;;;;33.40;12.40;;;;;;;5.13;76.87;99251.47;8660173;33;20169;-68
2021/01/25 10:33:02;;;;;;;29.47;14.20;;;;;;;5.28;77.34;99259.38;8676981;33;20194;-68
2021/01/25 10:38:05;;;;;;;35.23;14.93;;;;;;;5.59;77.34;99258.28;8678483;33;20141;-68
2021/01/25 10:43:08;;;;;;;26.27;13.15;;;;;;;6.40;77.77;99265.38;8690268;33;20210;-68
2021/01/25 10:48:11;;;;;;;27.85;13.05;;;;;;;7.61;76.54;99264.03;8699810;33;20235;-68
2021/01/25 10:53:14;;;;;;;34.83;14.02;;;;;;;9.13;76.65;99269.41;8767254;33;20226;-68
2021/01/25 10:58:16;;;;;;;27.35;13.45;;;;;;;9.83;72.06;99270.09;8767606;33;20226;-68
2021/01/25 11:03:19;;;;;;;30.58;13.35;;;;;;;10.21;71.38;99270.44;8765976;33;20273;-68
2021/01/25 11:08:22;;;;;;;28.15;13.70;;;;;;;9.13;73.37;99280.06;8764812;33;20814;-68
2021/01/25 11:13:24;;;;;;;25.95;13.00;;;;;;;8.94;70.62;99283.34;8752574;33;20305;-68
2021/01/25 11:18:28;;;;;;;19.33;11.40;;;;;;;10.23;72.61;99286.34;8737175;33;20301;-68
2021/01/25 11:23:30;;;;;;;28.88;13.75;;;;;;;10.58;64.57;99296.75;8735650;33;20235;-68
2021/01/25 11:28:32;;;;;;;24.58;11.60;;;;;;;10.31;54.89;99297.25;8757295;33;20249;-68
2021/01/25 11:33:36;;;;;;;24.83;12.40;;;;;;;10.33;59.87;99300.63;8753103;33;20259;-68
2021/01/25 11:38:38;;;;;;;22.30;10.57;;;;;;;9.71;61.26;99299.44;8738405;33;20230;-69
2021/01/25 11:43:41;;;;;;;17.23;9.93;;;;;;;8.97;58.54;99307.06;8738300;33;20234;-69
2021/01/25 11:48:44;;;;;;;21.08;11.10;;;;;;;8.75;68.05;99310.53;8762768;33;20227;-69
2021/01/25 11:53:46;;;;;;;18.77;10.43;;;;;;;7.71;61.57;99315.59;8796259;33;20280;-69
2021/01/25 11:58:48;;;;;;;27.00;11.43;;;;;;;7.88;68.13;99320.53;8575254;33;20148;-69
2021/01/25 12:03:51;;;;;;;25.95;12.70;;;;;;;7.43;69.43;99327.31;8642462;33;20637;-69
2021/01/25 12:08:54;;;;;;;22.20;11.77;;;;;;;7.46;69.81;99324.44;8794804;33;20231;-69
2021/01/25 12:13:56;;;;;;;23.98;12.55;;;;;;;8.05;72.38;99331.75;8795687;33;20778;-69
2021/01/25 12:18:59;;;;;;;20.42;11.40;;;;;;;9.12;69.58;99315.69;8794744;33;20684;-69
2021/01/25 12:24:03;;;;;;;21.38;11.23;;;;;;;8.25;62.15;99320.47;8794934;33;20317;-69
2021/01/25 12:29:05;;;;;;;17.88;9.20;;;;;;;9.03;66.36;99327.06;8793908;33;20223;-69
2021/01/25 12:34:08;;;;;;;19.80;10.52;;;;;;;9.29;63.06;99327.69;8760307;33;20219;-69
2021/01/25 12:39:11;;;;;;;23.38;10.68;;;;;;;10.29;64.51;99331.25;8762164;33;20234;-69
2021/01/25 12:44:14;;;;;;;22.73;11.13;;;;;;;9.27;58.38;99329.63;8763419;33;20238;-69
2021/01/25 12:49:19;;;;;;;24.02;11.57;;;;;;;8.41;61.57;99334.38;8763357;33;20239;-69
2021/01/25 12:54:22;;;;;;;22.75;11.07;;;;;;;7.91;64.62;99335.41;8748971;33;20947;-68
2021/01/25 12:59:24;;;;;;;19.55;10.68;;;;;;;8.23;69.00;99328.56;8793234;33;20230;-68
2021/01/25 13:04:27;;;;;;;20.42;11.02;;;;;;;8.56;68.01;99337.72;8793253;33;20310;-68
2021/01/25 13:09:30;;;;;;;21.42;10.68;;;;;;;8.49;65.06;99340.94;8792862;33;20302;-68
2021/01/25 13:14:32;;;;;;;25.75;11.13;;;;;;;10.02;59.22;99340.50;8792960;33;20231;-68
2021/01/25 13:19:35;;;;;;;19.13;10.55;;;;;;;11.37;65.73;99352.41;8793089;33;20293;-69
2021/01/25 13:24:38;;;;;;;20.00;9.18;;;;;;;9.46;56.95;99361.00;8792717;33;20257;-68
2021/01/25 13:29:40;;;;;;;19.40;9.68;;;;;;;8.71;63.53;99358.81;8771724;33;20744;-69
2021/01/25 13:35:01;;;;;;;14.55;9.02;;;;;;;8.66;64.81;99369.81;8760426;33;20401;-68
2021/01/25 13:40:05;;;;;;;13.98;7.32;;;;;;;8.75;58.22;99370.91;8773782;33;20710;-68
2021/01/25 13:45:18;;;;;;;14.73;7.80;;;;;;;10.07;56.00;99385.50;8787925;33;21479;-68
2021/01/25 13:50:42;;;;;;;13.15;6.85;;;;;;;10.63;58.81;99387.19;8762169;33;20320;-69
2021/01/25 13:55:45;;;;;;;14.38;7.15;;;;;;;10.92;54.77;99398.13;8739208;33;20250;-69
2021/01/25 14:00:48;;;;;;;11.25;7.15;;;;;;;10.12;52.45;99402.00;8739359;33;20228;-68
2021/01/25 14:05:52;;;;;;;11.68;6.63;;;;;;;8.53;53.26;99409.81;8738910;33;20232;-70
2021/01/25 14:10:55;;;;;;;10.95;5.38;;;;;;;8.61;56.22;99417.22;8738768;33;20627;-68
2021/01/25 14:15:57;;;;;;;11.77;6.72;;;;;;;8.52;55.88;99420.56;8739355;33;20242;-69
2021/01/25 14:21:01;;;;;;;10.55;6.93;;;;;;;9.45;63.00;99418.81;8739031;33;20734;-69
2021/01/25 14:26:06;;;;;;;9.10;6.13;;;;;;;10.13;60.23;99426.84;8738810;33;20242;-69
2021/01/25 14:31:09;;;;;;;11.93;6.10;;;;;;;9.58;53.06;99429.38;8739866;33;21091;-69
2021/01/25 14:36:12;;;;;;;10.23;4.95;;;;;;;9.49;54.26;99436.28;8777905;33;20234;-69
2021/01/25 14:41:14;;;;;;;11.63;5.78;;;;;;;9.42;55.59;99443.06;8800121;33;20242;-69
2021/01/25 14:46:18;;;;;;;12.98;6.25;;;;;;;8.93;57.52;99443.28;8797558;33;20235;-69
2021/01/25 14:51:22;;;;;;;17.30;6.82;;;;;;;8.53;62.23;99460.41;8795675;33;20738;-71
2021/01/25 14:56:25;;;;;;;11.15;6.47;;;;;;;8.36;57.30;99468.72;8797838;33;20230;-71
2021/01/25 15:01:28;;;;;;;13.57;7.22;;;;;;;8.40;57.82;99468.41;8797222;33;20254;-71
2021/01/25 15:06:31;;;;;;;13.40;7.47;;;;;;;8.46;61.92;99469.78;8796950;33;20330;-68
2021/01/25 15:11:34;;;;;;;15.80;7.47;;;;;;;8.23;59.49;99476.75;8797956;33;20326;-69
2021/01/25 15:16:36;;;;;;;17.90;8.18;;;;;;;7.88;61.15;99481.91;8819514;33;20250;-70
2021/01/25 15:21:40;;;;;;;16.33;8.10;;;;;;;7.38;59.17;99488.88;8797070;33;20222;-71
2021/01/25 15:26:42;;;;;;;19.55;9.13;;;;;;;6.87;59.53;99500.22;8776070;33;20273;-70
2021/01/25 15:31:45;;;;;;;17.85;9.35;;;;;;;6.36;61.80;99502.63;8738175;33;20308;-71
2021/01/25 15:36:48;;;;;;;21.33;10.10;;;;;;;5.72;62.67;99515.41;8737574;33;20228;-70
2021/01/25 15:41:50;;;;;;;19.75;10.13;;;;;;;5.20;63.94;99522.00;8736462;33;20236;-69
2021/01/25 15:46:53;;;;;;;15.23;9.10;;;;;;;5.02;64.71;99529.25;8736893;33;20921;-70
2021/01/25 15:51:57;;;;;;;22.73;9.83;;;;;;;4.87;65.80;99540.69;8736841;33;20740;-70
2021/01/25 15:57:00;;;;;;;16.57;9.37;;;;;;;4.73;66.35;99552.06;8722684;33;20199;-70
2021/01/25 16:02:02;;;;;;;22.93;10.37;;;;;;;4.57;66.67;99567.06;8528577;33;20211;-71
2021/01/25 16:07:06;;;;;;;20.70;10.93;;;;;;;4.51;67.93;99570.91;8510003;33;21227;-71
2021/01/25 16:12:10;;;;;;;19.10;10.37;;;;;;;4.35;67.89;99583.25;8508838;33;20145;-70
2021/01/25 16:17:14;;;;;;;20.43;9.03;;;;;;;4.49;69.28;99580.72;8508566;33;20458;-70
2021/01/25 16:22:18;;;;;;;18.37;9.40;;;;;;;4.30;68.12;99586.16;8511842;33;21084;-71
2021/01/25 16:27:21;;;;;;;22.10;10.80;;;;;;;4.21;67.95;99590.13;8514362;33;20235;-72
2021/01/25 16:32:23;;;;;;;24.33;9.97;;;;;;;4.14;67.24;99594.06;8514574;33;20411;-70
2021/01/25 16:37:27;;;;;;;16.58;8.25;;;;;;;4.11;67.40;99602.13;8513315;33;20931;-70
2021/01/25 16:42:29;;;;;;;21.07;10.87;;;;;;;4.08;67.39;99601.44;8515212;33;20482;-71
2021/01/25 16:47:32;;;;;;;23.93;9.80;;;;;;;4.08;67.64;99609.38;8511353;33;20459;-72
2021/01/25 16:52:36;;;;;;;18.03;10.60;;;;;;;4.05;67.41;99617.47;8513279;33;20172;-72
2021/01/25 16:57:39;;;;;;;23.87;11.43;;;;;;;4.01;67.33;99616.78;8513296;33;20430;-72
2021/01/25 17:02:42;;;;;;;15.77;8.47;;;;;;;3.97;67.53;99624.00;8513829;33;20511;-71
2021/01/25 17:07:47;;;;;;;17.40;9.73;;;;;;;3.99;67.19;99616.84;8514849;33;20823;-70
2021/01/25 17:12:49;;;;;;;20.93;10.63;;;;;;;3.91;67.79;99624.31;8535522;33;20437;-71
2021/01/25 17:17:52;;;;;;;21.50;11.23;;;;;;;3.86;67.71;99623.69;8529584;33;20240;-72
2021/01/25 17:23:10;;;;;;;25.47;11.57;;;;;;;3.76;68.19;99627.78;8560842;33;20205;-72
2021/01/25 17:28:12;;;;;;;26.63;12.00;;;;;;;3.77;68.12;99632.97;8562232;33;20188;-71
2021/01/25 17:33:15;;;;;;;23.93;13.03;;;;;;;3.80;68.12;99637.22;8555461;33;20413;-72
2021/01/25 17:38:19;;;;;;;32.37;14.30;;;;;;;3.79;68.58;99640.81;8515242;33;20153;-72
2021/01/25 17:43:22;;;;;;;27.80;11.63;;;;;;;3.74;68.45;99643.69;8505943;33;20527;-71
2021/01/25 17:48:33;;;;;;;28.60;13.23;;;;;;;3.72;68.93;99653.47;8505543;33;20600;-71
2021/01/25 17:53:37;;;;;;;24.10;11.63;;;;;;;3.58;68.96;99658.59;8508245;33;20540;-71
2021/01/25 17:58:40;;;;;;;23.60;12.47;;;;;;;3.66;69.23;99667.00;8509110;33;22163;-71
2021/01/25 18:03:42;;;;;;;27.07;15.07;;;;;;;3.68;69.35;99670.41;8505774;33;20149;-72
2021/01/25 18:08:46;;;;;;;26.75;13.70;;;;;;;3.63;69.64;99679.50;8505831;33;22213;-71
2021/01/25 18:13:49;;;;;;;31.87;14.03;;;;;;;3.62;69.43;99673.38;8504809;33;20941;-71
2021/01/25 18:18:51;;;;;;;24.13;13.17;;;;;;;3.57;69.84;99672.75;8499043;33;20686;-71
2021/01/25 18:23:55;;;;;;;26.43;14.10;;;;;;;3.60;69.78;99677.00;8498741;33;20427;-71
2021/01/25 18:28:58;;;;;;;26.90;14.83;;;;;;;3.46;70.26;99677.69;8502334;33;21263;-71
2021/01/25 18:34:01;;;;;;;29.23;14.50;;;;;;;3.53;69.82;99679.94;8519212;33;20440;-71
2021/01/25 18:39:05;;;;;;;21.87;11.20;;;;;;;3.34;70.13;99681.75;8533004;33;20197;-71
2021/01/25 18:44:08;;;;;;;24.53;13.77;;;;;;;3.64;69.41;99697.06;8557741;33;20443;-70
2021/01/25 18:49:11;;;;;;;17.97;9.80;;;;;;;3.32;70.21;99695.06;8537769;33;20173;-70
2021/01/25 18:54:14;;;;;;;34.73;15.20;;;;;;;3.54;69.51;99701.94;8552448;33;20529;-71
2021/01/25 18:59:16;;;;;;;19.13;10.33;;;;;;;3.55;69.01;99707.13;8546138;33;21115;-71
2021/01/25 19:04:20;;;;;;;29.23;13.23;;;;;;;3.49;69.47;99720.66;8536430;33;20306;-70
2021/01/25 19:09:24;;;;;;;23.67;12.53;;;;;;;3.33;69.80;99717.88;8535621;33;20445;-70
2021/01/25 19:14:26;;;;;;;30.45;14.35;;;;;;;3.41;69.80;99720.16;8532703;33;20821;-70
2021/01/25 19:19:28;;;;;;;26.23;12.13;;;;;;;3.61;68.97;99715.69;8509086;33;20180;-71
2021/01/25 19:24:32;;;;;;;24.87;12.47;;;;;;;3.72;68.52;99721.31;8485287;33;20425;-71
2021/01/25 19:29:35;;;;;;;18.03;9.43;;;;;;;3.56;69.03;99723.84;8504257;33;20232;-71
2021/01/25 19:34:39;;;;;;;27.40;12.83;;;;;;;3.72;68.94;99729.22;8483964;33;20430;-71
2021/01/25 19:39:43;;;;;;;23.60;12.33;;;;;;;3.47;69.08;99732.22;8478239;33;20941;-70
2021/01/25 19:44:46;;;;;;;25.40;12.37;;;;;;;3.66;68.69;99734.81;8477524;33;21027;-70
2021/01/25 19:49:48;;;;;;;25.70;11.47;;;;;;;3.66;68.51;99729.53;8482555;33;20789;-71
2021/01/25 19:54:52;;;;;;;27.10;11.77;;;;;;;3.65;68.54;99738.38;8487388;33;20185;-70
2021/01/25 19:59:54;;;;;;;26.77;12.57;;;;;;;3.63;68.71;99733.19;8487997;33;20472;-71
2021/01/25 20:04:56;;;;;;;22.20;12.17;;;;;;;3.76;67.88;99733.44;8489877;33;20450;-70
2021/01/25 20:09:59;;;;;;;20.33;10.83;;;;;;;3.79;68.03;99730.66;8493171;33;20188;-70
2021/01/25 20:15:06;;;;;;;17.73;11.03;;;;;;;3.67;68.28;99728.59;8492639;33;20558;-71
2021/01/25 20:20:10;;;;;;;25.50;11.00;;;;;;;3.60;68.17;99735.97;8490287;33;20192;-72
2021/01/25 20:25:19;;;;;;;28.65;12.40;;;;;;;3.69;68.13;99737.31;8490244;33;20457;-71
2021/01/25 20:30:23;;;;;;;28.93;13.13;;;;;;;3.75;68.33;99744.94;8490521;33;20459;-72
2021/01/25 20:35:29;;;;;;;26.83;13.67;;;;;;;3.72;68.49;99739.81;8489951;33;20469;-71
2021/01/25 20:40:33;;;;;;;22.10;12.87;;;;;;;3.86;67.79;99739.13;8486115;33;20413;-71
2021/01/25 20:45:42;;;;;;;28.20;13.63;;;;;;;3.99;67.57;99740.22;8485436;33;20137;-71
2021/01/25 20:50:46;;;;;;;18.27;9.10;;;;;;;3.49;69.57;99754.13;8511477;33;21211;-71
2021/01/25 20:55:50;;;;;;;25.97;13.40;;;;;;;3.67;69.53;99747.94;8508396;33;20180;-71
2021/01/25 21:00:53;;;;;;;18.33;11.17;;;;;;;3.52;69.99;99749.53;8482639;33;20651;-71
2021/01/25 21:05:56;;;;;;;28.53;15.57;;;;;;;3.68;70.04;99748.81;8458833;33;20238;-71
2021/01/25 21:11:00;;;;;;;21.40;12.37;;;;;;;3.32;71.24;99757.56;8481242;33;21951;-71
2021/01/25 21:16:03;;;;;;;31.40;13.97;;;;;;;3.37;71.18;99763.47;8499338;33;20253;-71
2021/01/25 21:21:07;;;;;;;22.53;12.10;;;;;;;3.14;71.77;99758.41;8480729;33;20397;-71
2021/01/25 21:26:10;;;;;;;24.90;14.73;;;;;;;3.49;71.40;99754.13;8482506;33;20479;-71
2021/01/25 21:31:13;;;;;;;24.47;11.83;;;;;;;3.36;71.61;99747.72;8478215;33;20287;-71
2021/01/25 21:36:16;;;;;;;32.50;16.67;;;;;;;3.48;71.20;99748.00;8477427;33;20653;-71
2021/01/25 21:41:19;;;;;;;30.00;14.73;;;;;;;3.64;71.07;99747.25;8479005;33;20798;-72
2021/01/25 21:46:23;;;;;;;27.90;13.50;;;;;;;3.64;70.72;99753.38;8480582;33;20259;-72
2021/01/25 21:51:26;;;;;;;32.13;16.20;;;;;;;3.77;70.67;99751.00;8479249;33;21920;-72
2021/01/25 21:56:29;;;;;;;14.37;8.97;;;;;;;3.58;71.19;99747.53;8474449;33;20782;-72
2021/01/25 22:01:32;;;;;;;33.67;16.27;;;;;;;3.69;70.84;99743.44;8474744;33;20185;-72
2021/01/25 22:06:35;;;;;;;35.20;16.10;;;;;;;3.63;71.69;99743.75;8479342;33;20156;-72
2021/01/25 22:11:38;;;;;;;34.10;17.07;;;;;;;3.64;71.60;99748.09;8481281;33;20420;-72
2021/01/25 22:16:40;;;;;;;26.97;13.77;;;;;;;3.69;72.14;99745.25;8480885;33;20455;-73
2021/01/25 22:21:43;;;;;;;21.85;10.95;;;;;;;3.43;74.21;99744.72;8508787;33;20465;-72
2021/01/25 22:27:04;;;;;;;21.63;11.63;;;;;;;3.58;74.02;99752.81;8505618;33;20179;-72
2021/01/25 22:32:06;;;;;;;24.23;11.33;;;;;;;3.29;75.63;99750.66;8505819;33;21007;-69
2021/01/25 22:37:09;;;;;;;31.20;14.53;;;;;;;3.33;76.63;99736.34;8530862;33;20959;-73
2021/01/25 22:42:13;;;;;;;28.23;13.30;;;;;;;3.17;77.44;99742.44;8514121;33;20472;-72
2021/01/25 22:47:20;;;;;;;36.80;15.97;;;;;;;3.28;78.04;99716.38;8486973;33;20488;-73
2021/01/25 22:52:23;;;;;;;39.13;15.13;;;;;;;3.29;77.72;99713.69;8487322;33;20546;-73
2021/01/25 22:57:26;;;;;;;36.07;15.73;;;;;;;3.32;78.42;99716.19;8527762;33;20414;-71
2021/01/25 23:02:28;;;;;;;43.50;20.27;;;;;;;3.46;77.78;99698.81;8537091;33;20194;-72
2021/01/25 23:07:31;;;;;;;44.80;19.43;;;;;;;3.30;78.41;99699.56;8535451;33;20140;-71
2021/01/25 23:12:35;;;;;;;40.50;19.33;;;;;;;3.47;78.06;99689.97;8536545;33;20491;-71
2021/01/25 23:17:37;;;;;;;49.00;20.00;;;;;;;3.47;78.02;99693.44;8516291;33;20436;-71
2021/01/25 23:22:39;;;;;;;30.30;13.40;;;;;;;3.25;78.13;99687.50;8516081;33;20640;-71
2021/01/25 23:27:43;;;;;;;48.50;18.87;;;;;;;3.34;78.12;99685.25;8520636;33;20498;-71
2021/01/25 23:32:46;;;;;;;40.93;16.37;;;;;;;3.09;78.40;99690.00;8528015;33;20244;-71
2021/01/25 23:37:50;;;;;;;41.20;16.57;;;;;;;2.81;80.51;99688.66;8533820;33;20183;-71